Time;durP1;ratioP1;P1;durP2;ratioP2;P2;SDS_P1;SDS_P2;PMS_P1;PMS_P2;Temp;Humidity;BMP_temperature;BMP_pressure;BME280_temperature;BME280_humidity;BME280_pressure;Samples;Min_cycle;Max_cycle;Signal;HPM_P1;HPM_P2
2021/04/03 00:01:38;;;;;;;;;;;;;;;12.73;68.63;96466.41;5025695;28;19955;-65
2021/04/03 00:04:22;;;;;;;;;;;;;;;12.73;68.57;96461.66;5027048;28;20335;-67
2021/04/03 00:07:06;;;;;;;;;;;;;;;12.87;67.78;96467.19;5026275;28;20014;-67
2021/04/03 00:09:50;;;;;;;;;;;;;;;12.85;67.72;96463.22;5026198;28;20031;-66
2021/04/03 00:12:34;;;;;;;;;;;;;;;12.77;68.15;96473.53;5026411;28;19936;-66
2021/04/03 00:15:18;;;;;;;;;;;;;;;12.50;69.83;96466.81;5025933;28;19932;-65
2021/04/03 00:18:02;;;;;;;;;;;;;;;12.05;71.89;96464.78;5026050;28;20406;-65
2021/04/03 00:20:47;;;;;;;;;;;;;;;12.18;71.09;96452.13;5026316;28;19935;-65
2021/04/03 00:23:31;;;;;;;;;;;;;;;12.31;70.41;96456.09;5024829;28;20078;-66
2021/04/03 00:26:15;;;;;;;;;;;;;;;12.44;69.40;96448.94;5024357;28;19932;-64
2021/04/03 00:29:00;;;;;;;;;;;;;;;12.42;69.60;96451.34;5025882;28;19966;-65
2021/04/03 00:31:44;;;;;;;;;;;;;;;12.42;69.36;96445.78;5025593;28;20447;-66
2021/04/03 00:34:28;;;;;;;;;;;;;;;12.43;68.89;96441.81;5026022;28;20001;-64
2021/04/03 00:37:11;;;;;;;;;;;;;;;12.35;69.11;96439.41;5025576;28;20624;-65
2021/04/03 00:39:55;;;;;;;;;;;;;;;12.24;69.78;96439.41;5025795;28;20019;-66
2021/04/03 00:42:41;;;;;;;;;;;;;;;12.15;69.94;96439.81;5024690;28;20394;-66
2021/04/03 00:45:25;;;;;;;;;;;;;;;12.13;70.18;96435.84;5023790;28;19955;-65
2021/04/03 00:48:09;;;;;;;;;;;;;;;12.10;70.56;96439.41;5023965;28;19959;-66
2021/04/03 00:50:54;;;;;;;;;;;;;;;11.89;71.72;96454.03;5023783;28;19959;-65
2021/04/03 00:53:38;;;;;;;;;;;;;;;11.92;72.04;96452.44;5025373;28;19955;-66
2021/04/03 00:56:23;;;;;;;;;;;;;;;12.12;71.27;96448.91;5024722;28;20069;-66
2021/04/03 00:59:06;;;;;;;;;;;;;;;12.14;71.44;96446.56;5024722;28;20506;-67
2021/04/03 01:01:50;;;;;;;;;;;;;;;12.18;70.86;96449.34;5024873;28;19943;-65
2021/04/03 01:04:34;;;;;;;;;;;;;;;12.13;70.65;96452.50;5025405;28;19994;-64
2021/04/03 01:07:18;;;;;;;;;;;;;;;12.14;70.44;96445.75;5024463;28;19971;-65
2021/04/03 01:10:03;;;;;;;;;;;;;;;12.05;71.04;96439.78;5024621;28;19931;-68
2021/04/03 01:13:05;;;;;;;;;;;;;;;12.05;70.85;96442.56;5025003;28;20358;-66
2021/04/03 01:16:03;;;;;;;;;;;;;;;11.77;71.50;96443.31;5024950;28;19980;-66
2021/04/03 01:18:56;;;;;;;;;;;;;;;9.53;73.53;96143.91;5023790;28;19971;-66
2021/04/03 01:21:47;;;;;;;;;;;;;;;11.44;72.82;96442.78;5024439;28;19932;-65
2021/04/03 01:24:49;;;;;;;;;;;;;;;11.52;72.72;96441.63;5023635;28;19928;-65
2021/04/03 01:27:36;;;;;;;;;;;;;;;11.38;73.84;96439.56;5025156;28;19967;-65
2021/04/03 01:30:22;;;;;;;;;;;;;;;11.12;75.91;96439.88;5024455;28;19932;-66
2021/04/03 01:33:08;;;;;;;;;;;;;;;11.16;75.21;96453.75;5023863;28;19971;-65
2021/04/03 01:36:02;;;;;;;;;;;;;;;11.27;74.47;96441.50;5024314;28;19963;-66
2021/04/03 01:38:52;;;;;;;;;;;;;;;11.26;74.02;96434.38;5023750;28;19924;-66
2021/04/03 01:41:38;;;;;;;;;;;;;;;11.37;73.96;96440.78;5022776;28;20466;-67
2021/04/03 01:44:26;;;;;;;;;;;;;;;11.33;73.80;96431.66;5025026;28;19928;-66
2021/04/03 01:47:11;;;;;;;;;;;;;;;11.43;73.50;96435.66;5022630;28;20458;-65
2021/04/03 01:49:56;;;;;;;;;;;;;;;11.40;73.37;96434.44;5023371;28;19927;-65
2021/04/03 01:52:40;;;;;;;;;;;;;;;11.41;72.97;96435.25;5022820;28;19927;-64
2021/04/03 01:55:24;;;;;;;;;;;;;;;11.39;73.02;96440.38;5024052;28;19928;-66
2021/04/03 01:58:10;;;;;;;;;;;;;;;11.46;72.52;96432.09;5024308;28;19977;-65
2021/04/03 02:00:54;;;;;;;;;;;;;;;11.46;72.38;96432.09;5023854;28;20347;-65
2021/04/03 02:03:38;;;;;;;;;;;;;;;11.33;73.19;96433.63;5024236;28;19987;-66
2021/04/03 02:06:23;;;;;;;;;;;;;;;11.19;73.21;96428.03;5023771;28;19944;-65
2021/04/03 02:09:10;;;;;;;;;;;;;;;11.11;73.51;96438.25;5024184;28;20399;-65
2021/04/03 02:11:54;;;;;;;;;;;;;;;11.08;73.86;96443.81;5023442;28;19927;-65
2021/04/03 02:14:38;;;;;;;;;;;;;;;11.05;73.87;96434.28;5024752;28;19927;-66
2021/04/03 02:17:23;;;;;;;;;;;;;;;10.97;73.54;96437.41;5024089;28;19932;-67
2021/04/03 02:20:09;;;;;;;;;;;;;;;10.99;73.97;96446.09;5022558;28;20048;-66
2021/04/03 02:22:53;;;;;;;;;;;;;;;10.94;74.90;96438.19;5022840;28;19924;-65
2021/04/03 02:25:37;;;;;;;;;;;;;;;10.76;75.29;96442.81;5022153;28;19931;-65
2021/04/03 02:28:21;;;;;;;;;;;;;;;10.72;75.73;96453.09;5024247;28;19947;-66
2021/04/03 02:31:06;;;;;;;;;;;;;;;10.69;75.48;96440.78;5023839;28;19971;-67
2021/04/03 02:33:53;;;;;;;;;;;;;;;10.45;76.40;96444.97;5024687;28;19947;-67
2021/04/03 02:36:37;;;;;;;;;;;;;;;10.28;76.88;96455.91;5023621;28;19928;-66
2021/04/03 02:39:21;;;;;;;;;;;;;;;10.28;77.12;96440.09;5022236;28;19927;-66
2021/04/03 02:42:10;;;;;;;;;;;;;;;10.11;77.98;96457.34;5023339;28;20016;-65
2021/04/03 02:44:58;;;;;;;;;;;;;;;10.08;78.24;96441.50;5024456;28;20028;-64
2021/04/03 02:47:45;;;;;;;;;;;;;;;9.86;78.96;96439.69;5025941;28;20119;-65
2021/04/03 02:50:31;;;;;;;;;;;;;;;9.92;78.93;96449.22;5027734;28;20446;-66
2021/04/03 02:53:16;;;;;;;;;;;;;;;9.40;79.76;96393.38;5028063;28;20347;-66
2021/04/03 02:56:01;;;;;;;;;;;;;;;9.68;80.19;96448.97;5025652;28;20000;-67
2021/04/03 02:58:47;;;;;;;;;;;;;;;9.78;79.67;96449.09;5027417;28;19970;-67
2021/04/03 03:01:32;;;;;;;;;;;;;;;9.73;79.86;96445.84;5026107;28;19983;-67
2021/04/03 03:04:17;;;;;;;;;;;;;;;9.71;79.58;96437.94;5027765;28;19924;-67
2021/04/03 03:07:01;;;;;;;;;;;;;;;9.70;80.08;96430.81;5027156;28;19975;-66
2021/04/03 03:09:48;;;;;;;;;;;;;;;9.58;80.35;96428.31;5027313;28;19940;-67
2021/04/03 03:12:33;;;;;;;;;;;;;;;9.70;79.52;96439.13;5027408;28;19932;-67
2021/04/03 03:15:19;;;;;;;;;;;;;;;9.69;79.32;96431.97;5026870;28;19975;-68
2021/04/03 03:18:03;;;;;;;;;;;;;;;9.55;79.55;96440.13;5026987;28;20023;-68
2021/04/03 03:20:47;;;;;;;;;;;;;;;9.57;78.59;96442.50;5025573;28;19983;-68
2021/04/03 03:23:31;;;;;;;;;;;;;;;9.52;79.74;96440.88;5027122;28;19967;-66
2021/04/03 03:26:15;;;;;;;;;;;;;;;9.42;80.51;96447.09;5026636;28;19982;-65
2021/04/03 03:29:01;;;;;;;;;;;;;;;9.33;81.06;96454.06;5027592;28;20243;-67
2021/04/03 03:31:44;;;;;;;;;;;;;;;9.34;81.10;96450.97;5025181;28;20024;-66
2021/04/03 03:34:28;;;;;;;;;;;;;;;9.32;81.60;96450.53;5027312;28;19924;-66
2021/04/03 03:37:13;;;;;;;;;;;;;;;9.26;82.10;96449.28;5026193;28;19991;-68
2021/04/03 03:39:58;;;;;;;;;;;;;;;9.27;82.70;96444.53;5027103;28;20426;-67
2021/04/03 03:42:42;;;;;;;;;;;;;;;9.28;82.48;96440.63;5025512;28;19936;-66
2021/04/03 03:45:27;;;;;;;;;;;;;;;9.34;81.30;96445.44;5025211;28;20768;-66
2021/04/03 03:48:12;;;;;;;;;;;;;;;9.28;80.95;96446.13;5026563;28;20067;-66
2021/04/03 03:50:55;;;;;;;;;;;;;;;9.13;81.56;96445.16;5024763;28;19943;-66
2021/04/03 03:53:39;;;;;;;;;;;;;;;8.93;81.86;96449.25;5026719;28;19956;-68
2021/04/03 03:56:24;;;;;;;;;;;;;;;8.76;83.31;96447.00;5024483;28;19967;-67
2021/04/03 03:59:08;;;;;;;;;;;;;;;8.60;84.28;96449.16;5026138;28;19978;-67
2021/04/03 04:01:52;;;;;;;;;;;;;;;8.72;84.40;96457.22;5018802;28;19949;-66
2021/04/03 04:04:36;;;;;;;;;;;;;;;8.78;83.62;96453.78;5005779;28;19937;-65
2021/04/03 04:07:20;;;;;;;;;;;;;;;8.78;83.86;96455.72;5006431;28;20498;-68
2021/04/03 04:10:07;;;;;;;;;;;;;;;8.82;84.18;96459.34;5006163;28;19976;-67
2021/04/03 04:12:51;;;;;;;;;;;;;;;8.87;83.87;96453.47;5006471;28;19967;-67
2021/04/03 04:15:35;;;;;;;;;;;;;;;8.97;83.49;96458.38;5005654;28;20352;-66
2021/04/03 04:18:19;;;;;;;;;;;;;;;9.07;82.75;96452.19;5005169;28;20739;-67
2021/04/03 04:21:04;;;;;;;;;;;;;;;9.07;82.73;96457.72;5005725;28;20415;-67
2021/04/03 04:23:48;;;;;;;;;;;;;;;9.01;82.90;96451.72;5006994;28;19975;-67
2021/04/03 04:26:32;;;;;;;;;;;;;;;9.15;82.60;96453.88;5005540;28;19984;-66
2021/04/03 04:29:16;;;;;;;;;;;;;;;9.12;82.78;96454.59;5006488;28;19928;-66
2021/04/03 04:32:03;;;;;;;;;;;;;;;9.20;81.49;96445.22;5005799;28;19971;-66
2021/04/03 04:34:47;;;;;;;;;;;;;;;9.08;82.41;96448.25;5004784;28;19994;-66
2021/04/03 04:37:31;;;;;;;;;;;;;;;9.30;81.50;96444.59;5005696;28;19948;-67
2021/04/03 04:40:15;;;;;;;;;;;;;;;9.42;80.24;96441.56;5005352;28;20303;-65
2021/04/03 04:42:59;;;;;;;;;;;;;;;9.52;79.56;96451.94;5006054;28;19928;-65
2021/04/03 04:45:43;;;;;;;;;;;;;;;9.59;79.91;96446.50;5005019;28;19971;-65
2021/04/03 04:48:27;;;;;;;;;;;;;;;9.69;78.27;96451.34;5005277;28;19987;-65
2021/04/03 04:51:11;;;;;;;;;;;;;;;9.72;78.00;96450.59;5005107;28;19932;-65
2021/04/03 04:53:55;;;;;;;;;;;;;;;9.79;77.63;96445.13;5005614;28;20094;-67
2021/04/03 04:56:39;;;;;;;;;;;;;;;9.83;78.00;96457.03;5005051;28;20277;-65
2021/04/03 04:59:23;;;;;;;;;;;;;;;9.97;77.59;96462.72;5004438;28;19952;-66
2021/04/03 05:02:07;;;;;;;;;;;;;;;10.08;77.63;96463.66;5015801;28;20052;-65
2021/04/03 05:04:51;;;;;;;;;;;;;;;10.29;75.83;96463.81;5025139;28;19928;-66
2021/04/03 05:07:35;;;;;;;;;;;;;;;10.37;75.17;96471.00;5023813;28;19999;-66
2021/04/03 05:10:19;;;;;;;;;;;;;;;10.59;75.00;96467.22;5024084;28;19932;-66
2021/04/03 05:13:03;;;;;;;;;;;;;;;10.73;74.16;96465.75;5025004;28;19928;-66
2021/04/03 05:15:52;;;;;;;;;;;;;;;10.97;72.93;96467.88;5024483;28;19928;-65
2021/04/03 05:18:36;;;;;;;;;;;;;;;10.17;77.50;96477.94;5024908;28;19963;-64
2021/04/03 05:21:20;;;;;;;;;;;;;;;10.19;78.95;96470.06;5024335;28;19943;-67
2021/04/03 05:24:04;;;;;;;;;;;;;;;10.32;78.00;96468.59;5024904;28;19950;-66
2021/04/03 05:26:48;;;;;;;;;;;;;;;10.44;77.89;96476.63;5020688;28;19944;-68
2021/04/03 05:29:32;;;;;;;;;;;;;;;10.66;77.27;96467.28;5009272;28;19932;-66
2021/04/03 05:32:16;;;;;;;;;;;;;;;10.80;76.67;96460.25;5011872;28;19935;-65
2021/04/03 05:35:00;;;;;;;;;;;;;;;10.80;77.26;96465.78;5021437;28;19970;-66
2021/04/03 05:37:45;;;;;;;;;;;;;;;10.91;75.93;96472.22;5017023;28;19936;-67
2021/04/03 05:40:29;;;;;;;;;;;;;;;10.99;74.99;96468.28;5003427;28;19932;-65
2021/04/03 05:43:14;;;;;;;;;;;;;;;11.06;75.31;96471.09;5010717;28;19928;-64
2021/04/03 05:45:58;;;;;;;;;;;;;;;11.08;75.25;96474.28;5005711;28;20063;-65
2021/04/03 05:48:43;;;;;;;;;;;;;;;11.13;75.91;96473.94;5014506;28;20401;-66
2021/04/03 05:51:27;;;;;;;;;;;;;;;11.32;75.41;96459.75;5018916;28;19975;-66
2021/04/03 05:54:11;;;;;;;;;;;;;;;11.47;74.53;96459.44;5021549;28;20430;-68
2021/04/03 05:56:55;;;;;;;;;;;;;;;11.66;73.86;96463.88;5010035;28;20407;-67
2021/04/03 05:59:39;;;;;;;;;;;;;;;11.90;73.44;96465.94;5005260;28;19928;-70
2021/04/03 06:02:23;;;;;;;;;;;;;;;12.25;71.80;96462.44;5005954;28;19948;-66
2021/04/03 06:05:07;;;;;;;;;;;;;;;12.38;71.26;96450.53;5019700;28;19999;-65
2021/04/03 06:07:51;;;;;;;;;;;;;;;12.54;70.95;96453.72;5023796;28;20035;-66
2021/04/03 06:10:35;;;;;;;;;;;;;;;12.77;70.23;96448.53;5022513;28;19931;-68
2021/04/03 06:13:19;;;;;;;;;;;;;;;12.85;69.69;96449.34;5023074;28;19975;-68
2021/04/03 06:16:27;;;;;;;;;;;;;;;12.88;69.53;96452.09;5023617;28;19991;-65
2021/04/03 06:19:17;;;;;;;;;;;;;;;12.94;68.55;96461.63;5014326;28;19928;-67
2021/04/03 06:22:02;;;;;;;;;;;;;;;12.90;67.99;96448.94;5022664;28;20014;-66
2021/04/03 06:24:46;;;;;;;;;;;;;;;12.98;67.55;96461.59;5020468;28;19932;-67
2021/04/03 06:27:30;;;;;;;;;;;;;;;13.19;66.86;96462.41;5008279;28;19928;-69
2021/04/03 06:30:28;;;;;;;;;;;;;;;13.38;67.00;96459.16;5014401;28;20459;-71
2021/04/03 06:33:13;;;;;;;;;;;;;;;13.59;66.52;96463.84;5027088;28;20451;-68
2021/04/03 06:36:05;;;;;;;;;;;;;;;13.85;65.47;96454.97;5015903;28;20328;-65
2021/04/03 06:38:58;;;;;;;;;;;;;;;13.90;66.60;96456.53;5026816;28;19975;-65
2021/04/03 06:41:42;;;;;;;;;;;;;;;14.07;67.07;96456.44;5011913;28;19932;-66
2021/04/03 06:44:26;;;;;;;;;;;;;;;14.28;65.79;96456.34;5008952;28;19928;-68
2021/04/03 06:47:10;;;;;;;;;;;;;;;14.41;63.87;96453.84;5022340;28;20433;-66
2021/04/03 06:49:54;;;;;;;;;;;;;;;14.61;62.41;96457.69;5011964;28;19979;-64
2021/04/03 06:52:39;;;;;;;;;;;;;;;14.76;62.27;96459.16;5008459;28;19968;-67
2021/04/03 06:55:23;;;;;;;;;;;;;;;14.78;62.51;96453.94;5026371;28;19932;-69
2021/04/03 06:58:08;;;;;;;;;;;;;;;14.76;63.45;96451.56;5027367;28;19924;-69
2021/04/03 07:00:52;;;;;;;;;;;;;;;14.84;62.82;96449.53;5027108;28;19935;-66
2021/04/03 07:03:38;;;;;;;;;;;;;;;15.20;59.56;96450.75;5008441;28;20301;-67
2021/04/03 07:06:22;;;;;;;;;;;;;;;15.34;58.60;96439.44;5023942;28;20030;-66
2021/04/03 07:09:07;;;;;;;;;;;;;;;15.53;57.13;96447.22;5015922;28;19927;-70
2021/04/03 07:11:52;;;;;;;;;;;;;;;15.61;57.41;96445.94;5006316;28;19933;-70
2021/04/03 07:14:36;;;;;;;;;;;;;;;15.95;57.11;96446.66;5021251;28;19975;-68
2021/04/03 07:17:20;;;;;;;;;;;;;;;16.20;54.90;96441.53;5007260;28;20037;-69
2021/04/03 07:20:07;;;;;;;;;;;;;;;16.68;54.37;96437.66;5019061;28;19940;-68
2021/04/03 07:23:11;;;;;;;;;;;;;;;17.13;52.24;96438.84;5010747;28;19992;-66
2021/04/03 07:25:58;;;;;;;;;;;;;;;17.36;50.68;96433.19;5007029;28;19994;-70
2021/04/03 07:28:42;;;;;;;;;;;;;;;17.49;50.53;96443.38;5016055;28;19974;-68
2021/04/03 07:31:40;;;;;;;;;;;;;;;17.79;48.58;96434.75;5018758;28;20001;-69
2021/04/03 07:34:40;;;;;;;;;;;;;;;18.03;48.00;96438.25;5008093;28;19979;-63
2021/04/03 07:37:31;;;;;;;;;;;;;;;18.11;47.51;96436.88;5006592;28;19956;-67
2021/04/03 07:40:24;;;;;;;;;;;;;;;17.08;49.33;96433.72;5010252;28;19990;-63
2021/04/03 07:43:27;;;;;;;;;;;;;;;17.35;49.24;96426.03;5018615;28;20391;-65
2021/04/03 07:46:11;;;;;;;;;;;;;;;17.13;50.01;96434.03;5012197;28;19935;-65
2021/04/03 07:48:57;;;;;;;;;;;;;;;17.54;49.59;96428.06;5006751;28;19929;-63
2021/04/03 07:51:42;;;;;;;;;;;;;;;17.19;47.63;96428.72;5024190;28;20444;-64
2021/04/03 07:54:27;;;;;;;;;;;;;;;17.32;47.94;96429.69;5026633;28;20016;-66
2021/04/03 07:57:11;;;;;;;;;;;;;;;17.92;47.17;96420.88;5024163;28;20010;-63
2021/04/03 07:59:55;;;;;;;;;;;;;;;18.50;46.32;96425.56;5024346;28;20451;-63
2021/04/03 08:02:39;;;;;;;;;;;;;;;18.70;45.31;96420.66;5015453;28;20419;-65
2021/04/03 08:05:25;;;;;;;;;;;;;;;18.84;45.89;96417.50;5019094;28;19932;-67
2021/04/03 08:08:10;;;;;;;;;;;;;;;17.66;47.56;96424.63;5007079;28;20339;-68
2021/04/03 08:11:06;;;;;;;;;;;;;;;17.77;48.15;96413.97;5015047;28;19932;-66
2021/04/03 08:13:51;;;;;;;;;;;;;;;18.17;47.70;96415.50;5026104;28;20342;-63
2021/04/03 08:16:36;;;;;;;;;;;;;;;18.37;46.50;96424.66;5025958;28;19928;-66
2021/04/03 08:19:23;;;;;;;;;;;;;;;18.59;45.75;96408.91;5018619;28;19928;-65
2021/04/03 08:22:08;;;;;;;;;;;;;;;18.59;46.48;96413.75;5005694;28;20324;-65
2021/04/03 08:24:56;;;;;;;;;;;;;;;18.45;47.28;96414.06;5006291;28;19947;-65
2021/04/03 08:27:40;;;;;;;;;;;;;;;18.85;46.45;96413.47;5005520;28;20036;-63
2021/04/03 08:30:29;;;;;;;;;;;;;;;18.98;46.03;96417.16;5007807;28;19940;-66
2021/04/03 08:33:14;;;;;;;;;;;;;;;18.97;46.31;96415.56;5018379;28;20406;-64
2021/04/03 08:35:58;;;;;;;;;;;;;;;18.69;47.00;96407.88;5028823;28;19936;-64
2021/04/03 08:38:45;;;;;;;;;;;;;;;18.90;46.39;96412.16;5025342;28;19967;-65
2021/04/03 08:41:30;;;;;;;;;;;;;;;19.25;45.49;96403.59;5025056;28;19928;-65
2021/04/03 08:44:13;;;;;;;;;;;;;;;19.67;44.98;96403.66;5019126;28;20423;-67
2021/04/03 08:47:02;;;;;;;;;;;;;;;20.02;43.43;96408.25;5004967;28;19948;-65
2021/04/03 08:49:47;;;;;;;;;;;;;;;17.92;43.16;96039.78;5004571;28;19928;-66
2021/04/03 08:52:31;;;;;;;;;;;;;;;20.33;42.80;96407.28;5006016;28;20391;-66
2021/04/03 08:55:23;;;;;;;;;;;;;;;19.32;44.95;96400.63;5004228;28;19932;-65
2021/04/03 08:58:07;;;;;;;;;;;;;;;19.43;45.06;96389.88;5005570;28;19928;-66
2021/04/03 09:00:51;;;;;;;;;;;;;;;19.86;44.52;96394.25;5004922;28;19976;-65
2021/04/03 09:03:36;;;;;;;;;;;;;;;19.89;44.20;96390.56;5018081;28;20295;-66
2021/04/03 09:06:38;;;;;;;;;;;;;;;20.07;43.72;96388.81;5017208;28;20367;-67
2021/04/03 09:09:24;;;;;;;;;;;;;;;20.39;43.79;96382.22;5019997;28;19932;-68
2021/04/03 09:12:10;;;;;;;;;;;;;;;20.84;42.54;96380.69;5010514;28;19976;-68
2021/04/03 09:14:54;;;;;;;;;;;;;;;20.98;42.27;96378.69;5025372;28;19928;-66
2021/04/03 09:17:48;;;;;;;;;;;;;;;21.38;41.76;96376.84;5016378;28;20434;-66
2021/04/03 09:20:32;;;;;;;;;;;;;;;19.60;41.12;96030.94;5004493;28;19991;-66
2021/04/03 09:23:22;;;;;;;;;;;;;;;21.92;40.33;96380.88;5010078;28;20331;-66
2021/04/03 09:26:05;;;;;;;;;;;;;;;21.82;40.33;96382.06;5024430;28;19928;-64
2021/04/03 09:28:49;;;;;;;;;;;;;;;22.02;40.07;96390.94;5024561;28;19927;-64
2021/04/03 09:31:43;;;;;;;;;;;;;;;22.31;39.56;96382.97;5024196;28;19928;-65
2021/04/03 09:34:32;;;;;;;;;;;;;;;22.40;39.73;96373.72;5025460;28;19927;-63
2021/04/03 09:37:20;;;;;;;;;;;;;;;22.02;39.57;96368.38;5013572;28;20459;-65
2021/04/03 09:40:06;;;;;;;;;;;;;;;22.06;39.80;96374.69;5015950;28;19962;-65
2021/04/03 09:42:55;;;;;;;;;;;;;;;22.15;36.60;96366.25;5009565;28;20382;-64
2021/04/03 09:45:40;;;;;;;;;;;;;;;22.66;36.15;96361.00;5015598;28;20628;-64
2021/04/03 09:48:24;;;;;;;;;;;;;;;22.96;35.75;96357.31;5019957;28;20436;-63
2021/04/03 09:51:08;;;;;;;;;;;;;;;22.63;35.92;96356.31;5023846;28;19978;-63
2021/04/03 09:53:53;;;;;;;;;;;;;;;22.62;36.05;96356.78;5014933;28;20383;-65
2021/04/03 09:56:37;;;;;;;;;;;;;;;22.73;37.18;96348.63;5006419;28;19932;-68
2021/04/03 09:59:22;;;;;;;;;;;;;;;22.31;36.79;96345.47;5004435;28;19959;-68
2021/04/03 10:02:06;;;;;;;;;;;;;;;22.12;37.09;96343.81;5013006;28;20063;-65
2021/04/03 10:04:50;;;;;;;;;;;;;;;21.83;38.68;96332.88;5012005;28;19951;-65
2021/04/03 10:07:34;;;;;;;;;;;;;;;21.87;38.61;96344.00;5003326;28;19928;-65
2021/04/03 10:10:18;;;;;;;;;;;;;;;21.40;38.98;96344.16;5021287;28;20407;-63
2021/04/03 10:13:03;;;;;;;;;;;;;;;21.13;39.06;96338.28;5011182;28;20037;-64
2021/04/03 10:15:46;;;;;;;;;;;;;;;20.70;39.51;96346.59;5004909;28;20328;-63
2021/04/03 10:18:30;;;;;;;;;;;;;;;20.67;40.16;96341.88;5003253;28;19934;-64
2021/04/03 10:21:15;;;;;;;;;;;;;;;20.51;39.99;96339.19;5015504;28;19956;-64
2021/04/03 10:23:59;;;;;;;;;;;;;;;20.62;39.84;96339.63;5022573;28;20346;-63
2021/04/03 10:26:43;;;;;;;;;;;;;;;20.67;39.40;96339.06;5022344;28;20017;-63
2021/04/03 10:29:27;;;;;;;;;;;;;;;20.76;39.46;96339.94;5024347;28;19948;-63
2021/04/03 10:32:10;;;;;;;;;;;;;;;20.81;38.67;96335.75;5018775;28;19932;-64
2021/04/03 10:34:54;;;;;;;;;;;;;;;20.98;38.81;96335.19;5013750;28;19960;-64
2021/04/03 10:37:38;;;;;;;;;;;;;;;20.80;39.27;96328.56;5015310;28;19998;-63
2021/04/03 10:40:23;;;;;;;;;;;;;;;20.76;39.99;96339.94;5017481;28;19952;-62
2021/04/03 10:43:07;;;;;;;;;;;;;;;20.52;39.57;96330.31;5008168;28;19927;-66
2021/04/03 10:45:51;;;;;;;;;;;;;;;20.72;39.11;96325.19;5014069;28;20032;-64
2021/04/03 10:48:35;;;;;;;;;;;;;;;20.91;38.86;96309.28;5008137;28;19928;-63
2021/04/03 10:51:19;;;;;;;;;;;;;;;20.94;36.79;96308.38;5022415;28;19927;-62
2021/04/03 10:54:03;;;;;;;;;;;;;;;20.92;36.03;96302.38;5002970;28;20543;-61
2021/04/03 10:56:48;;;;;;;;;;;;;;;20.80;34.95;96298.38;5019363;28;19982;-63
2021/04/03 10:59:32;;;;;;;;;;;;;;;20.85;35.50;96291.38;5020448;28;19932;-64
2021/04/03 11:02:16;;;;;;;;;;;;;;;21.04;35.90;96281.88;5021632;28;19935;-62
2021/04/03 11:05:00;;;;;;;;;;;;;;;21.27;35.68;96278.63;5004132;28;19951;-63
2021/04/03 11:07:44;;;;;;;;;;;;;;;21.66;35.99;96283.56;5012900;28;19951;-62
2021/04/03 11:10:28;;;;;;;;;;;;;;;21.90;35.32;96276.19;5041255;28;19966;-63
2021/04/03 11:13:12;;;;;;;;;;;;;;;22.09;35.19;96277.84;5047041;28;20039;-62
2021/04/03 11:15:56;;;;;;;;;;;;;;;22.17;35.48;96272.69;5019602;28;19991;-63
2021/04/03 11:18:40;;;;;;;;;;;;;;;22.55;35.18;96270.31;5020420;28;20300;-60
2021/04/03 11:21:24;;;;;;;;;;;;;;;22.73;34.57;96258.28;5006558;28;20506;-60
2021/04/03 11:24:08;;;;;;;;;;;;;;;23.12;34.78;96251.69;5008223;28;19986;-62
2021/04/03 11:26:52;;;;;;;;;;;;;;;23.28;33.65;96248.56;5012282;28;20477;-62
2021/04/03 11:29:36;;;;;;;;;;;;;;;23.24;33.75;96242.25;5005660;28;19944;-62
2021/04/03 11:32:20;;;;;;;;;;;;;;;23.63;33.50;96229.97;5006657;28;19928;-63
2021/04/03 11:35:04;;;;;;;;;;;;;;;23.62;33.27;96222.72;5023430;28;20322;-60
2021/04/03 11:37:49;;;;;;;;;;;;;;;23.53;32.14;96220.72;5006729;28;19975;-60
2021/04/03 11:40:33;;;;;;;;;;;;;;;23.78;32.13;96211.84;5011701;28;19937;-61
2021/04/03 11:43:18;;;;;;;;;;;;;;;23.97;32.13;96203.28;5010015;28;19928;-63
2021/04/03 11:46:02;;;;;;;;;;;;;;;23.61;31.47;96198.56;5006316;28;19932;-63
2021/04/03 11:48:46;;;;;;;;;;;;;;;23.34;32.50;96207.09;5024589;28;20367;-62
2021/04/03 11:51:31;;;;;;;;;;;;;;;23.33;32.88;96197.81;5026289;28;19948;-62
2021/04/03 11:54:17;;;;;;;;;;;;;;;23.41;33.34;96196.25;5026159;28;19928;-62
2021/04/03 11:57:02;;;;;;;;;;;;;;;23.57;33.17;96192.25;5025371;28;20330;-61
2021/04/03 11:59:47;;;;;;;;;;;;;;;23.70;33.03;96195.69;5025239;28;20034;-62
2021/04/03 12:02:30;;;;;;;;;;;;;;;23.60;33.64;96191.34;5025204;28;19932;-63
2021/04/03 12:05:14;;;;;;;;;;;;;;;23.40;33.92;96188.25;5025482;28;20426;-63
2021/04/03 12:07:58;;;;;;;;;;;;;;;23.04;34.18;96193.94;4342937;28;10001750;-62
2021/04/03 12:10:42;;;;;;;;;;;;;;;22.90;34.23;96186.91;5038039;28;19978;-62
2021/04/03 12:13:26;;;;;;;;;;;;;;;23.02;33.93;96194.41;5024983;28;19923;-61
2021/04/03 12:16:10;;;;;;;;;;;;;;;23.12;33.72;96183.88;5025846;28;20019;-62
2021/04/03 12:18:54;;;;;;;;;;;;;;;22.87;33.82;96187.03;5025603;28;19923;-61
2021/04/03 12:21:38;;;;;;;;;;;;;;;22.49;37.12;96193.91;5024052;28;19947;-62
2021/04/03 12:24:22;;;;;;;;;;;;;;;22.47;35.46;96195.63;5024896;28;19928;-62
2021/04/03 12:27:06;;;;;;;;;;;;;;;22.33;37.56;96236.53;5024521;28;20441;-63
2021/04/03 12:29:51;;;;;;;;;;;;;;;21.58;40.25;96180.78;5025787;28;19978;-62
2021/04/03 12:32:35;;;;;;;;;;;;;;;21.55;40.88;96170.44;5024387;28;20553;-62
2021/04/03 12:35:19;;;;;;;;;;;;;;;21.09;40.77;96171.44;5023699;28;19936;-62
2021/04/03 12:38:03;;;;;;;;;;;;;;;21.26;40.97;96175.59;5024052;28;19967;-62
2021/04/03 12:40:47;;;;;;;;;;;;;;;21.21;42.73;96170.59;5024676;28;20446;-62
2021/04/03 12:43:31;;;;;;;;;;;;;;;20.81;43.66;96178.13;5024225;28;19924;-62
2021/04/03 12:46:15;;;;;;;;;;;;;;;20.49;44.83;96178.47;5023880;28;19982;-61
2021/04/03 12:48:59;;;;;;;;;;;;;;;20.37;46.15;96182.91;5023818;28;20054;-62
2021/04/03 12:51:43;;;;;;;;;;;;;;;20.37;46.54;96184.94;5024580;28;20381;-60
2021/04/03 12:54:27;;;;;;;;;;;;;;;20.03;50.84;96185.66;5025351;28;19928;-61
2021/04/03 12:57:11;;;;;;;;;;;;;;;19.73;54.73;96183.47;5023680;28;19963;-63
2021/04/03 12:59:55;;;;;;;;;;;;;;;19.18;60.76;96186.78;5024943;28;19931;-63
2021/04/03 13:02:39;;;;;;;;;;;;;;;18.81;65.41;96191.06;5025488;28;20311;-62
2021/04/03 13:05:23;;;;;;;;;;;;;;;18.36;65.67;96193.13;5023787;28;19931;-62
2021/04/03 13:08:07;;;;;;;;;;;;;;;17.89;69.22;96203.94;5025261;28;19975;-64
2021/04/03 13:10:51;;;;;;;;;;;;;;;17.78;73.06;96202.66;5024289;28;20044;-62
2021/04/03 13:13:34;;;;;;;;;;;;;;;17.84;64.01;96206.50;5023726;28;19936;-63
2021/04/03 13:16:18;;;;;;;;;;;;;;;17.80;64.09;96203.00;5024555;28;19927;-64
2021/04/03 13:19:02;;;;;;;;;;;;;;;17.82;70.67;96192.13;5023539;28;19975;-62
2021/04/03 13:21:46;;;;;;;;;;;;;;;17.70;67.37;96201.25;5025012;28;19959;-63
2021/04/03 13:24:30;;;;;;;;;;;;;;;17.78;67.17;96192.22;5025315;28;19928;-63
2021/04/03 13:27:14;;;;;;;;;;;;;;;17.97;65.77;96187.78;5023274;28;20429;-64
2021/04/03 13:29:58;;;;;;;;;;;;;;;18.23;67.24;96183.88;5014219;28;19975;-61
2021/04/03 13:32:42;;;;;;;;;;;;;;;18.37;64.40;96177.88;5015425;28;19948;-64
2021/04/03 13:35:26;;;;;;;;;;;;;;;18.32;64.44;96184.00;5009249;28;20315;-64
2021/04/03 13:38:11;;;;;;;;;;;;;;;18.25;61.37;96178.63;5010369;28;20407;-62
2021/04/03 13:40:55;;;;;;;;;;;;;;;18.49;61.01;96171.56;5004310;28;19984;-67
2021/04/03 13:43:39;;;;;;;;;;;;;;;18.62;62.78;96144.34;5009960;28;20375;-65
2021/04/03 13:46:23;;;;;;;;;;;;;;;18.85;63.38;96152.50;5016434;28;19936;-63
2021/04/03 13:49:06;;;;;;;;;;;;;;;20.25;65.14;96157.66;5018364;28;20035;-64
2021/04/03 13:51:51;;;;;;;;;;;;;;;22.07;59.50;96156.22;5013616;28;19931;-62
2021/04/03 13:54:35;;;;;;;;;;;;;;;22.41;56.53;96158.75;5016976;28;19966;-67
2021/04/03 13:57:19;;;;;;;;;;;;;;;22.54;54.68;96155.06;5005184;28;20253;-66
2021/04/03 14:00:04;;;;;;;;;;;;;;;22.36;54.57;96144.50;5026341;28;19940;-60
2021/04/03 14:02:48;;;;;;;;;;;;;;;21.74;55.38;96143.09;5013593;28;19987;-63
2021/04/03 14:05:32;;;;;;;;;;;;;;;21.81;57.13;96152.09;5015604;28;20474;-63
2021/04/03 14:08:16;;;;;;;;;;;;;;;21.68;49.54;96145.75;5011963;28;19944;-64
2021/04/03 14:11:00;;;;;;;;;;;;;;;19.99;56.86;96144.84;5006413;28;19948;-61
2021/04/03 14:13:43;;;;;;;;;;;;;;;19.95;54.45;96147.03;5005696;28;19987;-61
2021/04/03 14:16:27;;;;;;;;;;;;;;;20.14;54.14;96157.22;5004836;28;19952;-60
2021/04/03 14:19:11;;;;;;;;;;;;;;;20.05;54.36;96159.91;5015086;28;19928;-61
2021/04/03 14:21:55;;;;;;;;;;;;;;;20.08;57.64;96170.25;5002605;28;19928;-61